createdAt,value
2017-11-01T00:01:45.068Z,18.85
2017-11-01T00:04:13.372Z,18.86
2017-11-01T00:06:41.717Z,18.82
2017-11-01T00:09:10.088Z,18.78
2017-11-01T00:11:39.148Z,18.78
2017-11-01T00:14:07.437Z,18.78
2017-11-01T00:16:35.992Z,18.77
2017-11-01T00:19:04.420Z,18.74
2017-11-01T00:21:32.928Z,18.74
2017-11-01T00:24:01.448Z,18.72
2017-11-01T00:26:29.759Z,18.73
2017-11-01T00:28:58.196Z,18.71
2017-11-01T00:31:26.528Z,18.68
2017-11-01T00:33:54.898Z,18.66
2017-11-01T00:36:24.025Z,18.71
2017-11-01T00:38:53.092Z,18.71
2017-11-01T00:41:21.420Z,18.71
2017-11-01T00:43:49.826Z,18.68
2017-11-01T00:46:18.132Z,18.69
2017-11-01T00:48:46.929Z,18.67
2017-11-01T00:51:15.231Z,18.66
2017-11-01T00:53:43.552Z,18.65
2017-11-01T00:56:11.902Z,18.65
2017-11-01T00:58:40.299Z,18.65
2017-11-01T01:01:08.580Z,18.65
2017-11-01T01:03:38.980Z,18.64
2017-11-01T01:06:07.289Z,18.64
2017-11-01T01:08:35.552Z,18.62
2017-11-01T01:11:03.995Z,18.58
2017-11-01T01:13:32.259Z,18.59
2017-11-01T01:16:00.723Z,18.58
2017-11-01T01:18:28.983Z,18.57
2017-11-01T01:20:57.320Z,18.52
2017-11-01T01:23:25.625Z,18.53
2017-11-01T01:25:54.036Z,18.51
2017-11-01T01:28:22.328Z,18.51
2017-11-01T01:30:50.787Z,18.51
2017-11-01T01:33:19.059Z,18.50
2017-11-01T01:35:47.385Z,18.48
2017-11-01T01:38:15.674Z,18.49
2017-11-01T01:40:44.020Z,18.47
2017-11-01T01:43:12.359Z,18.43
2017-11-01T01:45:40.686Z,18.44
2017-11-01T01:48:08.957Z,18.42
2017-11-01T01:50:37.607Z,18.36
2017-11-01T01:53:06.048Z,18.38
2017-11-01T01:55:34.570Z,18.39
2017-11-01T01:58:02.864Z,18.39
2017-11-01T02:00:31.324Z,18.37
2017-11-01T02:02:59.604Z,18.35
2017-11-01T02:05:27.903Z,18.33
2017-11-01T02:07:56.383Z,18.32
2017-11-01T02:10:24.677Z,18.33
2017-11-01T02:12:53.099Z,18.31
2017-11-01T02:15:21.629Z,18.32
2017-11-01T02:17:49.895Z,18.29
2017-11-01T02:20:18.209Z,18.28
2017-11-01T02:22:46.663Z,18.30
2017-11-01T02:25:14.955Z,18.27
2017-11-01T02:27:43.239Z,18.27
2017-11-01T02:30:11.554Z,18.25
2017-11-01T02:32:39.877Z,18.28
2017-11-01T02:35:08.424Z,18.26
2017-11-01T02:37:36.889Z,18.24
2017-11-01T02:40:05.299Z,18.23
2017-11-01T02:42:33.695Z,18.23
2017-11-01T02:45:01.968Z,18.21
2017-11-01T02:47:30.540Z,18.20
2017-11-01T02:49:58.828Z,18.21
2017-11-01T02:52:27.389Z,18.20
2017-11-01T02:54:55.689Z,18.19
2017-11-01T02:57:24.107Z,18.18
2017-11-01T02:59:52.422Z,18.17
2017-11-01T03:02:20.916Z,18.17
2017-11-01T03:04:49.359Z,18.16
2017-11-01T03:07:18.076Z,18.15
2017-11-01T03:09:46.499Z,18.13
2017-11-01T03:12:14.888Z,18.16
2017-11-01T03:14:43.179Z,18.15
2017-11-01T03:17:11.549Z,18.16
2017-11-01T03:19:39.822Z,18.14
2017-11-01T03:22:08.555Z,18.13
2017-11-01T03:24:37.026Z,18.13
2017-11-01T03:27:05.373Z,18.13
2017-11-01T03:29:33.683Z,18.13
2017-11-01T03:32:02.056Z,18.10
2017-11-01T03:34:30.415Z,18.10
2017-11-01T03:36:58.719Z,18.11
2017-11-01T03:39:27.059Z,18.11
2017-11-01T03:41:55.578Z,18.10
2017-11-01T03:44:24.008Z,18.08
2017-11-01T03:46:52.337Z,18.05
2017-11-01T03:49:20.623Z,18.09
2017-11-01T03:51:49.072Z,18.08
2017-11-01T03:54:17.586Z,18.09
2017-11-01T03:56:45.965Z,18.09
2017-11-01T03:59:14.296Z,18.10
2017-11-01T04:01:42.722Z,18.09
2017-11-01T04:04:11.270Z,18.08
2017-11-01T04:06:39.600Z,18.08
2017-11-01T04:09:07.872Z,18.07
2017-11-01T04:11:36.318Z,18.04
2017-11-01T04:14:04.603Z,18.04
2017-11-01T04:16:32.912Z,18.04
2017-11-01T04:19:06.488Z,18.03
2017-11-01T04:21:39.511Z,18.04
2017-11-01T04:24:07.891Z,18.02
2017-11-01T04:26:36.187Z,18.00
2017-11-01T04:29:04.613Z,18.03
2017-11-01T04:31:32.937Z,18.00
2017-11-01T04:34:01.237Z,17.98
2017-11-01T04:36:30.887Z,17.98
2017-11-01T04:38:59.173Z,18.00
2017-11-01T04:41:28.764Z,17.99
2017-11-01T04:43:57.077Z,17.97
2017-11-01T04:46:25.479Z,17.97
2017-11-01T04:48:56.722Z,17.95
2017-11-01T04:51:25.035Z,17.97
2017-11-01T04:53:55.334Z,17.95
2017-11-01T04:56:24.661Z,17.92
2017-11-01T04:58:53.252Z,17.95
2017-11-01T05:01:21.580Z,17.95
2017-11-01T05:03:49.912Z,17.92
2017-11-01T05:06:20.142Z,17.93
2017-11-01T05:08:49.686Z,17.96
2017-11-01T05:11:19.011Z,17.93
2017-11-01T05:13:52.797Z,17.93
2017-11-01T05:16:21.977Z,17.90
2017-11-01T05:18:50.451Z,17.85
2017-11-01T05:21:19.172Z,17.92
2017-11-01T05:23:47.616Z,17.90
2017-11-01T05:26:17.380Z,17.89
2017-11-01T05:28:45.633Z,17.88
2017-11-01T05:31:14.103Z,17.91
2017-11-01T05:33:42.551Z,17.90
2017-11-01T05:36:10.847Z,17.91
2017-11-01T05:38:39.134Z,17.94
2017-11-01T05:41:08.285Z,17.90
2017-11-01T05:43:36.910Z,17.92
2017-11-01T05:46:05.257Z,17.90
2017-11-01T05:48:33.691Z,17.91
2017-11-01T05:51:02.126Z,17.88
2017-11-01T05:53:30.411Z,17.90
2017-11-01T05:55:58.776Z,17.96
2017-11-01T05:58:27.138Z,17.94
2017-11-01T06:00:55.445Z,17.95
2017-11-01T06:03:23.739Z,18.00
2017-11-01T06:05:52.226Z,18.07
2017-11-01T06:08:20.687Z,18.10
2017-11-01T06:10:48.979Z,18.13
2017-11-01T06:13:17.352Z,18.17
2017-11-01T06:15:45.663Z,18.18
2017-11-01T06:18:14.087Z,18.18
2017-11-01T06:20:43.023Z,18.20
2017-11-01T06:23:11.358Z,18.22
2017-11-01T06:25:39.679Z,18.24
2017-11-01T06:28:08.161Z,18.24
2017-11-01T06:30:36.475Z,18.27
2017-11-01T06:33:04.752Z,18.29
2017-11-01T06:35:33.207Z,18.31
2017-11-01T06:38:07.731Z,18.31
2017-11-01T06:40:36.932Z,18.30
2017-11-01T06:43:05.347Z,18.32
2017-11-01T06:45:33.726Z,18.33
2017-11-01T06:48:02.247Z,18.47
2017-11-01T06:50:30.631Z,18.64
2017-11-01T06:52:59.080Z,18.62
2017-11-01T06:55:27.575Z,18.61
2017-11-01T06:57:55.847Z,18.62
2017-11-01T07:00:33.154Z,18.66
2017-11-01T07:03:02.368Z,18.63
2017-11-01T07:05:31.599Z,18.63
2017-11-01T07:07:59.924Z,18.63
2017-11-01T07:10:28.487Z,18.64
2017-11-01T07:12:56.762Z,18.64
2017-11-01T07:15:25.264Z,18.66
2017-11-01T07:17:53.585Z,18.64
2017-11-01T07:20:21.908Z,18.66
2017-11-01T07:22:50.254Z,18.67
2017-11-01T07:25:18.855Z,18.68
2017-11-01T07:27:47.214Z,18.70
2017-11-01T07:30:15.531Z,18.72
2017-11-01T07:32:43.908Z,18.73
2017-11-01T07:35:12.247Z,18.72
2017-11-01T07:37:40.804Z,18.73
2017-11-01T07:40:09.228Z,18.74
2017-11-01T07:42:37.540Z,18.73
2017-11-01T07:45:06.039Z,18.72
2017-11-01T07:47:34.683Z,18.75
2017-11-01T07:50:03.009Z,18.76
2017-11-01T07:52:31.649Z,18.77
2017-11-01T07:55:00.227Z,18.79
2017-11-01T07:57:28.808Z,18.77
2017-11-01T07:59:57.736Z,18.76
2017-11-01T08:02:26.622Z,18.78
2017-11-01T08:04:55.154Z,18.79
2017-11-01T08:07:24.039Z,18.79
2017-11-01T08:09:52.652Z,18.81
2017-11-01T08:12:21.027Z,18.79
2017-11-01T08:14:49.303Z,18.81
2017-11-01T08:17:17.634Z,18.84
2017-11-01T08:19:45.963Z,18.82
2017-11-01T08:22:14.324Z,18.81
2017-11-01T08:24:43.511Z,18.81
2017-11-01T08:27:12.013Z,18.81
2017-11-01T08:29:40.415Z,18.80
2017-11-01T08:32:08.764Z,18.79
2017-11-01T08:34:37.077Z,18.79
2017-11-01T08:37:05.539Z,18.81
2017-11-01T08:39:34.209Z,18.82
2017-11-01T08:42:03.913Z,18.82
2017-11-01T08:44:32.387Z,18.83
2017-11-01T08:47:00.674Z,18.82
2017-11-01T08:49:29.499Z,18.83
2017-11-01T08:51:58.486Z,18.84
2017-11-01T08:54:26.809Z,18.86
2017-11-01T08:56:55.148Z,18.85
2017-11-01T08:59:23.403Z,18.81
2017-11-01T09:01:51.748Z,18.79
2017-11-01T09:04:20.044Z,18.75
2017-11-01T09:06:48.351Z,18.75
2017-11-01T09:09:16.684Z,18.76
2017-11-01T09:11:45.055Z,18.80
2017-11-01T09:14:13.441Z,18.79
2017-11-01T09:16:41.797Z,18.74
2017-11-01T09:19:10.396Z,18.77
2017-11-01T09:21:39.114Z,18.77
2017-11-01T09:24:07.599Z,18.73
2017-11-01T09:26:36.051Z,18.75
2017-11-01T09:29:05.175Z,18.73
2017-11-01T09:31:33.708Z,18.73
2017-11-01T09:34:03.942Z,18.73
2017-11-01T09:36:32.410Z,18.80
2017-11-01T09:39:00.960Z,18.84
2017-11-01T09:41:29.424Z,18.91
2017-11-01T09:43:59.046Z,18.96
2017-11-01T09:46:27.595Z,18.88
2017-11-01T09:48:56.045Z,18.87
2017-11-01T09:51:24.486Z,18.86
2017-11-01T09:53:53.072Z,18.84
2017-11-01T09:56:21.378Z,18.83
2017-11-01T09:58:49.757Z,18.81
2017-11-01T10:01:18.080Z,18.82
2017-11-01T10:03:46.516Z,18.82
2017-11-01T10:06:14.841Z,18.80
2017-11-01T10:08:43.269Z,18.83
2017-11-01T10:11:11.583Z,18.83
2017-11-01T10:13:40.024Z,18.83
2017-11-01T10:16:08.339Z,18.82
2017-11-01T10:18:36.732Z,18.82
2017-11-01T10:21:05.383Z,18.96
2017-11-01T10:23:33.984Z,19.07
2017-11-01T10:26:02.483Z,19.17
2017-11-01T10:28:30.944Z,19.29
2017-11-01T10:30:59.235Z,19.37
2017-11-01T10:33:27.532Z,19.47
2017-11-01T10:35:55.857Z,19.56
2017-11-01T10:38:25.073Z,19.63
2017-11-01T10:40:53.571Z,19.71
2017-11-01T10:43:22.035Z,19.78
2017-11-01T10:45:50.710Z,19.85
2017-11-01T10:48:19.363Z,19.58
2017-11-01T10:50:47.691Z,19.47
2017-11-01T10:53:15.964Z,19.41
2017-11-01T10:55:44.281Z,19.33
2017-11-01T10:58:12.593Z,19.29
2017-11-01T11:00:40.931Z,19.26
2017-11-01T11:03:09.245Z,19.20
2017-11-01T11:05:37.981Z,19.18
2017-11-01T11:08:06.837Z,19.22
2017-11-01T11:10:35.272Z,19.13
2017-11-01T11:13:03.784Z,19.15
2017-11-01T11:15:32.497Z,19.11
2017-11-01T11:18:01.580Z,19.11
2017-11-01T11:20:30.367Z,19.06
2017-11-01T11:22:59.271Z,19.06
2017-11-01T11:25:27.645Z,19.06
2017-11-01T11:27:56.107Z,19.04
2017-11-01T11:30:24.738Z,18.97
2017-11-01T11:32:53.168Z,18.98
2017-11-01T11:35:22.260Z,18.97
2017-11-01T11:37:50.632Z,18.94
2017-11-01T11:40:18.983Z,18.94
2017-11-01T11:42:47.396Z,18.95
2017-11-01T11:45:15.683Z,18.95
2017-11-01T11:47:43.971Z,18.91
2017-11-01T11:50:13.406Z,18.93
2017-11-01T11:52:41.855Z,18.94
2017-11-01T11:55:10.336Z,18.96
2017-11-01T11:57:38.611Z,18.99
2017-11-01T12:00:07.659Z,18.98
2017-11-01T12:02:36.183Z,18.97
2017-11-01T12:05:04.671Z,18.94
2017-11-01T12:07:33.120Z,18.96
2017-11-01T12:10:01.562Z,18.94
2017-11-01T12:12:30.056Z,18.99
2017-11-01T12:14:58.458Z,19.00
2017-11-01T12:17:26.996Z,19.00
2017-11-01T12:19:55.263Z,18.99
2017-11-01T12:22:24.184Z,19.01
2017-11-01T12:24:52.479Z,18.98
2017-11-01T12:27:20.860Z,19.01
2017-11-01T12:29:49.162Z,19.05
2017-11-01T12:32:17.547Z,19.05
2017-11-01T12:34:45.986Z,19.10
2017-11-01T12:37:14.296Z,19.06
2017-11-01T12:39:42.699Z,19.11
2017-11-01T12:42:11.015Z,19.12
2017-11-01T12:44:39.331Z,19.01
2017-11-01T12:47:07.823Z,19.03
2017-11-01T12:49:36.111Z,19.02
2017-11-01T12:52:04.115Z,18.98
2017-11-01T12:54:32.547Z,18.96
2017-11-01T12:57:00.856Z,18.92
2017-11-01T12:59:29.351Z,19.00
2017-11-01T13:01:57.675Z,18.99
2017-11-01T13:04:26.286Z,18.99
2017-11-01T13:06:54.639Z,19.04
2017-11-01T13:09:23.079Z,19.06
2017-11-01T13:11:51.397Z,18.99
2017-11-01T13:14:20.128Z,19.00
2017-11-01T13:16:48.781Z,19.01
2017-11-01T13:19:17.271Z,19.00
2017-11-01T13:21:45.785Z,19.00
2017-11-01T13:24:14.308Z,19.02
2017-11-01T13:26:42.744Z,18.99
2017-11-01T13:29:11.271Z,18.98
2017-11-01T13:31:39.590Z,18.98
2017-11-01T13:34:07.863Z,18.99
2017-11-01T13:36:36.612Z,18.98
2017-11-01T13:39:06.127Z,19.04
2017-11-01T13:41:34.593Z,19.02
2017-11-01T13:44:03.216Z,19.01
2017-11-01T13:46:31.540Z,19.02
2017-11-01T13:48:59.897Z,19.01
2017-11-01T13:51:28.764Z,19.00
2017-11-01T13:53:57.171Z,19.03
2017-11-01T13:56:25.899Z,19.06
2017-11-01T13:58:54.313Z,19.09
2017-11-01T14:01:22.729Z,19.05
2017-11-01T14:03:51.176Z,19.04
2017-11-01T14:06:19.580Z,19.00
2017-11-01T14:08:48.077Z,18.98
2017-11-01T14:11:16.526Z,19.03
2017-11-01T14:13:44.836Z,19.04
2017-11-01T14:16:13.143Z,19.04
2017-11-01T14:18:41.445Z,19.00
2017-11-01T14:21:09.775Z,18.99
2017-11-01T14:23:38.911Z,19.04
2017-11-01T14:26:07.211Z,19.00
2017-11-01T14:28:35.594Z,19.02
2017-11-01T14:31:04.140Z,18.99
2017-11-01T14:33:32.456Z,19.01
2017-11-01T14:36:00.829Z,19.05
2017-11-01T14:38:29.191Z,19.07
2017-11-01T14:40:57.673Z,18.97
2017-11-01T14:43:26.004Z,18.92
2017-11-01T14:45:54.507Z,18.91
2017-11-01T14:48:22.789Z,18.91
2017-11-01T14:50:51.104Z,18.88
2017-11-01T14:53:19.486Z,18.86
2017-11-01T14:55:47.797Z,18.84
2017-11-01T14:58:16.116Z,18.84
2017-11-01T15:00:44.468Z,18.83
2017-11-01T15:03:12.831Z,18.82
2017-11-01T15:05:41.323Z,18.84
2017-11-01T15:08:09.656Z,18.85
2017-11-01T15:10:38.080Z,18.81
2017-11-01T15:13:06.520Z,18.79
2017-11-01T15:15:34.910Z,18.79
2017-11-01T15:18:03.563Z,18.78
2017-11-01T15:20:31.899Z,18.77
2017-11-01T15:23:00.412Z,18.76
2017-11-01T15:25:28.743Z,18.77
2017-11-01T15:27:57.044Z,18.77
2017-11-01T15:30:26.073Z,18.76
2017-11-01T15:32:54.583Z,18.75
2017-11-01T15:35:23.015Z,18.75
2017-11-01T15:37:51.272Z,18.73
2017-11-01T15:40:19.603Z,18.71
2017-11-01T15:42:47.880Z,18.78
2017-11-01T15:45:16.221Z,18.76
2017-11-01T15:47:44.665Z,18.76
2017-11-01T15:50:12.986Z,18.78
2017-11-01T15:52:41.997Z,18.78
2017-11-01T15:55:10.343Z,18.79
2017-11-01T15:57:39.100Z,18.79
2017-11-01T16:00:09.286Z,18.79
2017-11-01T16:02:38.121Z,18.79
2017-11-01T16:05:06.959Z,18.79
2017-11-01T16:07:36.711Z,18.80
2017-11-01T16:10:08.197Z,18.80
2017-11-01T16:12:37.096Z,18.80
2017-11-01T16:15:07.157Z,18.82
2017-11-01T16:17:36.774Z,18.83
2017-11-01T16:20:05.164Z,18.85
2017-11-01T16:22:33.710Z,18.88
2017-11-01T16:25:03.468Z,18.88
2017-11-01T16:27:31.920Z,18.88
2017-11-01T16:30:00.406Z,18.92
2017-11-01T16:32:28.753Z,18.94
2017-11-01T16:34:57.195Z,18.92
2017-11-01T16:37:25.803Z,19.02
2017-11-01T16:39:54.465Z,18.98
2017-11-01T16:42:22.807Z,18.93
2017-11-01T16:44:51.150Z,18.93
2017-11-01T16:47:20.246Z,18.94
2017-11-01T16:49:49.168Z,18.95
2017-11-01T16:52:17.773Z,18.95
2017-11-01T16:54:46.336Z,18.95
2017-11-01T16:57:14.692Z,18.97
2017-11-01T16:59:43.001Z,18.98
2017-11-01T17:02:11.491Z,18.99
2017-11-01T17:04:39.892Z,19.01
2017-11-01T17:07:08.564Z,18.98
2017-11-01T17:09:37.679Z,18.97
2017-11-01T17:12:05.989Z,18.99
2017-11-01T17:14:34.984Z,19.01
2017-11-01T17:17:03.304Z,18.99
2017-11-01T17:19:32.503Z,19.00
2017-11-01T17:22:00.862Z,18.99
2017-11-01T17:24:29.152Z,18.99
2017-11-01T17:26:57.721Z,18.97
2017-11-01T17:29:26.046Z,19.01
2017-11-01T17:31:54.376Z,18.99
2017-11-01T17:34:22.688Z,18.99
2017-11-01T17:36:51.573Z,19.00
2017-11-01T17:39:20.055Z,19.01
2017-11-01T17:41:48.983Z,18.97
2017-11-01T17:44:17.344Z,18.96
2017-11-01T17:46:46.205Z,18.98
2017-11-01T17:49:14.508Z,18.96
2017-11-01T17:51:42.816Z,18.97
2017-11-01T17:54:11.750Z,18.97
2017-11-01T17:56:40.104Z,18.97
2017-11-01T17:59:08.447Z,18.97
2017-11-01T18:01:36.755Z,18.97
2017-11-01T18:04:05.088Z,18.97
2017-11-01T18:06:33.505Z,18.96
2017-11-01T18:09:01.852Z,18.96
2017-11-01T18:11:30.201Z,18.95
2017-11-01T18:13:58.508Z,18.96
2017-11-01T18:16:27.020Z,18.95
2017-11-01T18:18:55.487Z,18.97
2017-11-01T18:21:23.892Z,18.96
2017-11-01T18:23:52.471Z,18.96
2017-11-01T18:26:20.872Z,18.95
2017-11-01T18:28:49.304Z,18.98
2017-11-01T18:31:17.615Z,18.97
2017-11-01T18:33:46.026Z,18.99
2017-11-01T18:36:14.383Z,19.02
2017-11-01T18:38:42.687Z,19.01
2017-11-01T18:41:11.735Z,18.99
2017-11-01T18:43:40.419Z,18.99
2017-11-01T18:46:08.723Z,18.98
2017-11-01T18:48:37.279Z,18.99
2017-11-01T18:51:08.238Z,18.99
2017-11-01T18:53:38.176Z,18.98
2017-11-01T18:56:06.631Z,18.99
2017-11-01T18:58:37.656Z,18.98
2017-11-01T19:01:07.866Z,18.99
2017-11-01T19:03:37.011Z,18.99
2017-11-01T19:06:06.263Z,19.01
2017-11-01T19:08:34.616Z,19.04
2017-11-01T19:11:03.582Z,19.04
2017-11-01T19:13:32.131Z,19.05
2017-11-01T19:16:00.548Z,19.05
2017-11-01T19:18:29.480Z,19.06
2017-11-01T19:20:57.825Z,19.05
2017-11-01T19:23:26.109Z,19.10
2017-11-01T19:25:55.556Z,19.17
2017-11-01T19:28:24.220Z,19.23
2017-11-01T19:30:53.200Z,19.28
2017-11-01T19:33:21.687Z,19.32
2017-11-01T19:35:50.208Z,19.35
2017-11-01T19:38:18.801Z,19.38
2017-11-01T19:40:47.109Z,19.43
2017-11-01T19:43:15.426Z,19.44
2017-11-01T19:45:43.916Z,19.46
2017-11-01T19:48:12.286Z,19.46
2017-11-01T19:50:40.711Z,19.49
2017-11-01T19:53:09.092Z,19.52
2017-11-01T19:55:37.635Z,19.53
2017-11-01T19:58:06.201Z,19.56
2017-11-01T20:00:34.583Z,19.56
2017-11-01T20:03:02.877Z,19.58
2017-11-01T20:05:31.363Z,19.60
2017-11-01T20:08:00.711Z,19.61
2017-11-01T20:10:29.090Z,19.58
2017-11-01T20:12:58.291Z,19.53
2017-11-01T20:15:26.639Z,19.48
2017-11-01T20:17:55.068Z,19.43
2017-11-01T20:20:23.863Z,19.41
2017-11-01T20:22:52.474Z,19.38
2017-11-01T20:25:20.875Z,19.35
2017-11-01T20:27:49.328Z,19.32
2017-11-01T20:30:18.640Z,19.30
2017-11-01T20:32:47.065Z,19.37
2017-11-01T20:35:15.811Z,19.56
2017-11-01T20:37:44.134Z,19.58
2017-11-01T20:40:13.072Z,19.60
2017-11-01T20:42:41.465Z,19.63
2017-11-01T20:45:10.360Z,19.64
2017-11-01T20:47:39.495Z,19.61
2017-11-01T20:50:07.871Z,19.67
2017-11-01T20:52:36.902Z,19.71
2017-11-01T20:55:05.801Z,19.78
2017-11-01T20:57:34.195Z,19.82
2017-11-01T21:00:02.549Z,19.81
2017-11-01T21:02:31.247Z,19.71
2017-11-01T21:04:59.780Z,19.62
2017-11-01T21:07:28.141Z,19.57
2017-11-01T21:09:56.556Z,19.51
2017-11-01T21:12:25.132Z,19.50
2017-11-01T21:14:53.624Z,19.46
2017-11-01T21:17:22.554Z,19.43
2017-11-01T21:19:51.854Z,19.40
2017-11-01T21:22:20.425Z,19.38
2017-11-01T21:24:48.773Z,19.36
2017-11-01T21:27:17.267Z,19.34
2017-11-01T21:29:45.737Z,19.31
2017-11-01T21:32:14.520Z,19.29
2017-11-01T21:34:42.808Z,19.28
2017-11-01T21:37:11.114Z,19.25
2017-11-01T21:39:40.428Z,19.26
2017-11-01T21:42:08.752Z,19.22
2017-11-01T21:44:37.229Z,19.22
2017-11-01T21:47:05.646Z,19.20
2017-11-01T21:49:34.411Z,19.19
2017-11-01T21:52:03.303Z,19.18
2017-11-01T21:54:31.724Z,19.15
2017-11-01T21:57:00.063Z,19.15
2017-11-01T21:59:28.468Z,19.14
2017-11-01T22:01:57.460Z,19.11
2017-11-01T22:04:26.348Z,19.11
2017-11-01T22:06:54.814Z,19.10
2017-11-01T22:09:23.228Z,19.08
2017-11-01T22:11:51.567Z,19.08
2017-11-01T22:14:19.908Z,19.04
2017-11-01T22:16:48.300Z,19.00
2017-11-01T22:19:16.591Z,19.01
2017-11-01T22:21:45.494Z,19.00
2017-11-01T22:24:13.811Z,18.99
2017-11-01T22:26:42.222Z,18.96
2017-11-01T22:29:10.683Z,18.96
2017-11-01T22:31:39.445Z,18.95
2017-11-01T22:34:07.967Z,18.93
2017-11-01T22:36:36.296Z,18.92
2017-11-01T22:39:05.239Z,18.90
2017-11-01T22:41:35.927Z,18.89
2017-11-01T22:44:06.052Z,18.87
2017-11-01T22:46:36.177Z,18.85
2017-11-01T22:49:05.472Z,18.82
2017-11-01T22:51:33.783Z,18.82
2017-11-01T22:54:02.644Z,18.83
2017-11-01T22:56:31.147Z,18.79
2017-11-01T22:58:59.528Z,18.79
2017-11-01T23:01:29.045Z,18.79
2017-11-01T23:03:58.203Z,18.78
2017-11-01T23:06:26.762Z,18.75
2017-11-01T23:08:55.036Z,18.74
2017-11-01T23:11:23.484Z,18.74
2017-11-01T23:13:51.812Z,18.75
2017-11-01T23:16:20.199Z,18.73
2017-11-01T23:18:48.479Z,18.71
2017-11-01T23:21:16.775Z,18.74
2017-11-01T23:23:45.255Z,18.71
2017-11-01T23:26:13.592Z,18.71
2017-11-01T23:28:41.988Z,18.73
2017-11-01T23:31:10.403Z,18.71
2017-11-01T23:33:38.983Z,18.67
2017-11-01T23:36:07.352Z,18.67
2017-11-01T23:38:35.668Z,18.67
2017-11-01T23:41:03.985Z,18.68
2017-11-01T23:43:32.304Z,18.66
2017-11-01T23:46:00.666Z,18.68
2017-11-01T23:48:29.081Z,18.64
2017-11-01T23:50:57.421Z,18.68
2017-11-01T23:53:25.714Z,18.68
2017-11-01T23:55:54.024Z,18.63
2017-11-01T23:58:22.323Z,18.65
